sensor_id;sensor_type;location;lat;lon;timestamp;P1;durP1;ratioP1;P2;durP2;ratioP2
20966;SDS011;10642;50.682;18.510;2023-05-17T00:02:05;13.47;;;8.63;;
20966;SDS011;10642;50.682;18.510;2023-05-17T00:04:32;9.97;;;7.80;;
20966;SDS011;10642;50.682;18.510;2023-05-17T00:06:59;11.27;;;8.50;;
20966;SDS011;10642;50.682;18.510;2023-05-17T00:09:27;12.67;;;8.70;;
20966;SDS011;10642;50.682;18.510;2023-05-17T00:11:53;11.13;;;8.30;;
20966;SDS011;10642;50.682;18.510;2023-05-17T00:14:20;10.87;;;8.27;;
20966;SDS011;10642;50.682;18.510;2023-05-17T00:16:47;11.27;;;8.53;;
20966;SDS011;10642;50.682;18.510;2023-05-17T00:19:14;10.97;;;7.63;;
20966;SDS011;10642;50.682;18.510;2023-05-17T00:21:42;11.93;;;6.47;;
20966;SDS011;10642;50.682;18.510;2023-05-17T00:24:08;10.50;;;7.17;;
20966;SDS011;10642;50.682;18.510;2023-05-17T00:26:35;9.23;;;6.67;;
20966;SDS011;10642;50.682;18.510;2023-05-17T00:29:02;10.07;;;7.63;;
20966;SDS011;10642;50.682;18.510;2023-05-17T00:31:29;8.93;;;6.43;;
20966;SDS011;10642;50.682;18.510;2023-05-17T00:33:57;9.30;;;6.20;;
20966;SDS011;10642;50.682;18.510;2023-05-17T00:36:23;8.30;;;6.60;;
20966;SDS011;10642;50.682;18.510;2023-05-17T00:38:50;9.53;;;6.50;;
20966;SDS011;10642;50.682;18.510;2023-05-17T00:41:17;9.30;;;6.30;;
20966;SDS011;10642;50.682;18.510;2023-05-17T00:43:44;10.13;;;6.80;;
20966;SDS011;10642;50.682;18.510;2023-05-17T00:46:11;9.50;;;6.67;;
20966;SDS011;10642;50.682;18.510;2023-05-17T00:48:39;8.97;;;6.30;;
20966;SDS011;10642;50.682;18.510;2023-05-17T00:51:06;10.00;;;5.90;;
20966;SDS011;10642;50.682;18.510;2023-05-17T00:53:33;9.63;;;6.37;;
20966;SDS011;10642;50.682;18.510;2023-05-17T00:56:02;11.27;;;6.03;;
20966;SDS011;10642;50.682;18.510;2023-05-17T00:58:31;9.17;;;6.37;;
20966;SDS011;10642;50.682;18.510;2023-05-17T01:00:59;8.27;;;5.70;;
20966;SDS011;10642;50.682;18.510;2023-05-17T01:03:26;7.27;;;4.70;;
20966;SDS011;10642;50.682;18.510;2023-05-17T01:05:54;7.07;;;4.70;;
20966;SDS011;10642;50.682;18.510;2023-05-17T01:08:21;6.63;;;4.87;;
20966;SDS011;10642;50.682;18.510;2023-05-17T01:13:23;6.67;;;4.70;;
20966;SDS011;10642;50.682;18.510;2023-05-17T01:15:57;6.93;;;4.80;;
20966;SDS011;10642;50.682;18.510;2023-05-17T01:18:32;7.23;;;4.33;;
20966;SDS011;10642;50.682;18.510;2023-05-17T01:21:02;7.20;;;4.93;;
20966;SDS011;10642;50.682;18.510;2023-05-17T01:23:44;5.97;;;4.10;;
20966;SDS011;10642;50.682;18.510;2023-05-17T01:26:18;5.67;;;4.60;;
20966;SDS011;10642;50.682;18.510;2023-05-17T01:28:48;7.10;;;4.33;;
20966;SDS011;10642;50.682;18.510;2023-05-17T01:31:16;6.73;;;4.90;;
20966;SDS011;10642;50.682;18.510;2023-05-17T01:33:44;6.17;;;4.50;;
20966;SDS011;10642;50.682;18.510;2023-05-17T01:36:11;6.73;;;4.47;;
20966;SDS011;10642;50.682;18.510;2023-05-17T01:38:38;8.27;;;5.13;;
20966;SDS011;10642;50.682;18.510;2023-05-17T01:41:09;10.77;;;6.20;;
20966;SDS011;10642;50.682;18.510;2023-05-17T01:46:46;12.37;;;6.90;;
20966;SDS011;10642;50.682;18.510;2023-05-17T01:49:23;10.20;;;7.30;;
20966;SDS011;10642;50.682;18.510;2023-05-17T01:51:54;9.17;;;6.77;;
20966;SDS011;10642;50.682;18.510;2023-05-17T01:54:22;9.60;;;7.10;;
20966;SDS011;10642;50.682;18.510;2023-05-17T01:56:56;9.73;;;7.03;;
20966;SDS011;10642;50.682;18.510;2023-05-17T01:59:24;9.87;;;6.87;;
20966;SDS011;10642;50.682;18.510;2023-05-17T02:01:56;9.87;;;7.00;;
20966;SDS011;10642;50.682;18.510;2023-05-17T02:04:24;9.03;;;6.60;;
20966;SDS011;10642;50.682;18.510;2023-05-17T02:06:51;12.37;;;6.77;;
20966;SDS011;10642;50.682;18.510;2023-05-17T02:09:18;9.47;;;7.07;;
20966;SDS011;10642;50.682;18.510;2023-05-17T02:11:45;10.60;;;7.27;;
20966;SDS011;10642;50.682;18.510;2023-05-17T02:14:12;10.40;;;7.23;;
20966;SDS011;10642;50.682;18.510;2023-05-17T02:16:39;10.97;;;7.27;;
20966;SDS011;10642;50.682;18.510;2023-05-17T02:19:06;12.77;;;7.77;;
20966;SDS011;10642;50.682;18.510;2023-05-17T02:21:35;13.70;;;7.87;;
20966;SDS011;10642;50.682;18.510;2023-05-17T02:24:02;14.53;;;7.47;;
20966;SDS011;10642;50.682;18.510;2023-05-17T02:26:29;11.00;;;8.47;;
20966;SDS011;10642;50.682;18.510;2023-05-17T02:28:58;13.57;;;9.13;;
20966;SDS011;10642;50.682;18.510;2023-05-17T02:31:25;11.60;;;8.27;;
20966;SDS011;10642;50.682;18.510;2023-05-17T02:33:52;14.20;;;9.17;;
20966;SDS011;10642;50.682;18.510;2023-05-17T02:36:21;14.40;;;8.63;;
20966;SDS011;10642;50.682;18.510;2023-05-17T02:38:48;14.33;;;9.10;;
20966;SDS011;10642;50.682;18.510;2023-05-17T02:41:15;16.20;;;9.93;;
20966;SDS011;10642;50.682;18.510;2023-05-17T02:43:42;14.23;;;8.63;;
20966;SDS011;10642;50.682;18.510;2023-05-17T02:46:09;13.63;;;9.13;;
20966;SDS011;10642;50.682;18.510;2023-05-17T02:48:36;16.00;;;9.70;;
20966;SDS011;10642;50.682;18.510;2023-05-17T02:51:03;14.50;;;9.53;;
20966;SDS011;10642;50.682;18.510;2023-05-17T02:53:30;14.77;;;8.70;;
20966;SDS011;10642;50.682;18.510;2023-05-17T02:55:57;15.23;;;9.63;;
20966;SDS011;10642;50.682;18.510;2023-05-17T02:58:24;12.07;;;8.07;;
20966;SDS011;10642;50.682;18.510;2023-05-17T03:00:51;11.97;;;8.53;;
20966;SDS011;10642;50.682;18.510;2023-05-17T03:03:18;15.77;;;8.40;;
20966;SDS011;10642;50.682;18.510;2023-05-17T03:05:47;13.50;;;8.87;;
20966;SDS011;10642;50.682;18.510;2023-05-17T03:08:15;11.77;;;8.53;;
20966;SDS011;10642;50.682;18.510;2023-05-17T03:10:43;11.57;;;8.20;;
20966;SDS011;10642;50.682;18.510;2023-05-17T03:13:10;14.60;;;8.37;;
20966;SDS011;10642;50.682;18.510;2023-05-17T03:15:38;11.47;;;7.93;;
20966;SDS011;10642;50.682;18.510;2023-05-17T03:18:05;12.47;;;8.23;;
20966;SDS011;10642;50.682;18.510;2023-05-17T03:20:35;13.30;;;7.40;;
20966;SDS011;10642;50.682;18.510;2023-05-17T03:23:02;12.03;;;8.30;;
20966;SDS011;10642;50.682;18.510;2023-05-17T03:25:31;11.10;;;7.90;;
20966;SDS011;10642;50.682;18.510;2023-05-17T03:27:59;10.80;;;7.10;;
20966;SDS011;10642;50.682;18.510;2023-05-17T03:30:26;10.60;;;7.40;;
20966;SDS011;10642;50.682;18.510;2023-05-17T03:32:53;11.33;;;7.27;;
20966;SDS011;10642;50.682;18.510;2023-05-17T03:35:21;13.93;;;7.70;;
20966;SDS011;10642;50.682;18.510;2023-05-17T03:37:52;11.87;;;7.37;;
20966;SDS011;10642;50.682;18.510;2023-05-17T03:40:19;10.07;;;6.87;;
20966;SDS011;10642;50.682;18.510;2023-05-17T03:42:46;12.03;;;6.70;;
20966;SDS011;10642;50.682;18.510;2023-05-17T03:45:13;12.27;;;6.97;;
20966;SDS011;10642;50.682;18.510;2023-05-17T03:47:41;13.47;;;7.27;;
20966;SDS011;10642;50.682;18.510;2023-05-17T03:50:10;10.60;;;6.77;;
20966;SDS011;10642;50.682;18.510;2023-05-17T03:52:37;10.83;;;7.37;;
20966;SDS011;10642;50.682;18.510;2023-05-17T03:55:04;12.23;;;7.57;;
20966;SDS011;10642;50.682;18.510;2023-05-17T03:57:31;10.60;;;7.53;;
20966;SDS011;10642;50.682;18.510;2023-05-17T03:59:58;9.43;;;7.07;;
20966;SDS011;10642;50.682;18.510;2023-05-17T04:02:25;10.37;;;7.10;;
20966;SDS011;10642;50.682;18.510;2023-05-17T04:04:52;12.53;;;7.77;;
20966;SDS011;10642;50.682;18.510;2023-05-17T04:07:21;11.30;;;7.17;;
20966;SDS011;10642;50.682;18.510;2023-05-17T04:09:47;9.80;;;7.23;;
20966;SDS011;10642;50.682;18.510;2023-05-17T04:12:14;12.10;;;7.77;;
20966;SDS011;10642;50.682;18.510;2023-05-17T04:14:42;9.23;;;6.60;;
20966;SDS011;10642;50.682;18.510;2023-05-17T04:17:10;11.47;;;8.00;;
20966;SDS011;10642;50.682;18.510;2023-05-17T04:19:37;9.10;;;6.70;;
20966;SDS011;10642;50.682;18.510;2023-05-17T04:22:04;10.47;;;7.53;;
20966;SDS011;10642;50.682;18.510;2023-05-17T04:24:31;10.23;;;6.47;;
20966;SDS011;10642;50.682;18.510;2023-05-17T04:26:58;11.20;;;6.67;;
20966;SDS011;10642;50.682;18.510;2023-05-17T04:29:29;9.47;;;6.83;;
20966;SDS011;10642;50.682;18.510;2023-05-17T04:31:57;9.27;;;6.90;;
20966;SDS011;10642;50.682;18.510;2023-05-17T04:34:25;13.47;;;6.90;;
20966;SDS011;10642;50.682;18.510;2023-05-17T04:36:54;11.97;;;6.60;;
20966;SDS011;10642;50.682;18.510;2023-05-17T04:39:21;9.87;;;6.47;;
20966;SDS011;10642;50.682;18.510;2023-05-17T04:41:48;9.27;;;5.87;;
20966;SDS011;10642;50.682;18.510;2023-05-17T04:44:17;9.00;;;6.00;;
20966;SDS011;10642;50.682;18.510;2023-05-17T04:46:44;11.23;;;6.13;;
20966;SDS011;10642;50.682;18.510;2023-05-17T04:49:12;11.03;;;5.50;;
20966;SDS011;10642;50.682;18.510;2023-05-17T04:51:40;10.03;;;6.07;;
20966;SDS011;10642;50.682;18.510;2023-05-17T04:54:08;10.57;;;5.67;;
20966;SDS011;10642;50.682;18.510;2023-05-17T04:56:35;12.23;;;5.77;;
20966;SDS011;10642;50.682;18.510;2023-05-17T04:59:06;9.07;;;5.50;;
20966;SDS011;10642;50.682;18.510;2023-05-17T05:01:33;14.50;;;5.83;;
20966;SDS011;10642;50.682;18.510;2023-05-17T05:04:01;10.67;;;5.93;;
20966;SDS011;10642;50.682;18.510;2023-05-17T05:06:38;13.27;;;5.53;;
20966;SDS011;10642;50.682;18.510;2023-05-17T05:09:05;12.83;;;5.97;;
20966;SDS011;10642;50.682;18.510;2023-05-17T05:11:35;9.60;;;5.10;;
20966;SDS011;10642;50.682;18.510;2023-05-17T05:14:03;11.10;;;5.50;;
20966;SDS011;10642;50.682;18.510;2023-05-17T05:16:30;8.53;;;5.40;;
20966;SDS011;10642;50.682;18.510;2023-05-17T05:18:57;11.03;;;5.73;;
20966;SDS011;10642;50.682;18.510;2023-05-17T05:21:24;10.10;;;5.93;;
20966;SDS011;10642;50.682;18.510;2023-05-17T05:23:51;9.73;;;5.97;;
20966;SDS011;10642;50.682;18.510;2023-05-17T05:26:18;12.50;;;6.87;;
20966;SDS011;10642;50.682;18.510;2023-05-17T05:28:45;12.53;;;6.53;;
20966;SDS011;10642;50.682;18.510;2023-05-17T05:31:12;10.83;;;6.17;;
20966;SDS011;10642;50.682;18.510;2023-05-17T05:33:46;9.27;;;6.07;;
20966;SDS011;10642;50.682;18.510;2023-05-17T05:36:13;10.03;;;5.97;;
20966;SDS011;10642;50.682;18.510;2023-05-17T05:38:40;12.57;;;7.50;;
20966;SDS011;10642;50.682;18.510;2023-05-17T05:41:07;11.97;;;6.70;;
20966;SDS011;10642;50.682;18.510;2023-05-17T05:43:35;10.53;;;7.17;;
20966;SDS011;10642;50.682;18.510;2023-05-17T05:46:03;11.27;;;7.07;;
20966;SDS011;10642;50.682;18.510;2023-05-17T05:48:30;14.87;;;7.87;;
20966;SDS011;10642;50.682;18.510;2023-05-17T05:50:58;9.03;;;6.83;;
20966;SDS011;10642;50.682;18.510;2023-05-17T05:53:25;11.50;;;8.00;;
20966;SDS011;10642;50.682;18.510;2023-05-17T05:55:54;12.33;;;7.57;;
20966;SDS011;10642;50.682;18.510;2023-05-17T05:58:21;10.33;;;7.23;;
20966;SDS011;10642;50.682;18.510;2023-05-17T06:00:49;12.53;;;7.30;;
20966;SDS011;10642;50.682;18.510;2023-05-17T06:03:16;9.30;;;6.87;;
20966;SDS011;10642;50.682;18.510;2023-05-17T06:05:43;13.33;;;8.03;;
20966;SDS011;10642;50.682;18.510;2023-05-17T06:08:10;11.17;;;7.07;;
20966;SDS011;10642;50.682;18.510;2023-05-17T06:10:37;10.87;;;7.57;;
20966;SDS011;10642;50.682;18.510;2023-05-17T06:13:04;13.90;;;7.90;;
20966;SDS011;10642;50.682;18.510;2023-05-17T06:15:30;13.70;;;8.07;;
20966;SDS011;10642;50.682;18.510;2023-05-17T06:17:58;12.97;;;8.20;;
20966;SDS011;10642;50.682;18.510;2023-05-17T06:20:25;13.33;;;8.53;;
20966;SDS011;10642;50.682;18.510;2023-05-17T06:22:52;13.30;;;9.07;;
20966;SDS011;10642;50.682;18.510;2023-05-17T06:25:19;14.97;;;9.10;;
20966;SDS011;10642;50.682;18.510;2023-05-17T06:27:46;11.27;;;9.00;;
20966;SDS011;10642;50.682;18.510;2023-05-17T06:30:13;19.07;;;10.20;;
20966;SDS011;10642;50.682;18.510;2023-05-17T06:32:40;17.20;;;10.57;;
20966;SDS011;10642;50.682;18.510;2023-05-17T06:35:07;17.97;;;10.07;;
20966;SDS011;10642;50.682;18.510;2023-05-17T06:37:34;18.97;;;11.50;;
20966;SDS011;10642;50.682;18.510;2023-05-17T06:40:02;17.97;;;11.50;;
20966;SDS011;10642;50.682;18.510;2023-05-17T06:42:41;15.80;;;11.43;;
20966;SDS011;10642;50.682;18.510;2023-05-17T06:45:08;17.60;;;10.50;;
20966;SDS011;10642;50.682;18.510;2023-05-17T06:47:35;17.20;;;11.10;;
20966;SDS011;10642;50.682;18.510;2023-05-17T06:50:02;18.87;;;10.00;;
20966;SDS011;10642;50.682;18.510;2023-05-17T06:52:29;17.83;;;9.87;;
20966;SDS011;10642;50.682;18.510;2023-05-17T06:54:56;17.00;;;11.67;;
20966;SDS011;10642;50.682;18.510;2023-05-17T06:57:23;18.20;;;10.30;;
20966;SDS011;10642;50.682;18.510;2023-05-17T06:59:50;21.17;;;10.40;;
20966;SDS011;10642;50.682;18.510;2023-05-17T07:02:17;15.70;;;10.90;;
20966;SDS011;10642;50.682;18.510;2023-05-17T07:04:44;15.57;;;9.20;;
20966;SDS011;10642;50.682;18.510;2023-05-17T07:07:11;22.97;;;11.07;;
20966;SDS011;10642;50.682;18.510;2023-05-17T07:09:38;16.40;;;11.13;;
20966;SDS011;10642;50.682;18.510;2023-05-17T07:12:05;18.90;;;11.47;;
20966;SDS011;10642;50.682;18.510;2023-05-17T07:14:32;21.07;;;11.83;;
20966;SDS011;10642;50.682;18.510;2023-05-17T07:16:59;18.63;;;10.57;;
20966;SDS011;10642;50.682;18.510;2023-05-17T07:19:27;20.33;;;11.57;;
20966;SDS011;10642;50.682;18.510;2023-05-17T07:21:54;18.70;;;11.07;;
20966;SDS011;10642;50.682;18.510;2023-05-17T07:24:21;19.97;;;12.13;;
20966;SDS011;10642;50.682;18.510;2023-05-17T07:26:48;19.23;;;12.57;;
20966;SDS011;10642;50.682;18.510;2023-05-17T07:29:17;19.97;;;12.33;;
20966;SDS011;10642;50.682;18.510;2023-05-17T07:31:45;23.00;;;12.33;;
20966;SDS011;10642;50.682;18.510;2023-05-17T07:34:12;19.97;;;12.77;;
20966;SDS011;10642;50.682;18.510;2023-05-17T07:36:39;19.33;;;12.87;;
20966;SDS011;10642;50.682;18.510;2023-05-17T07:39:06;20.63;;;12.00;;
20966;SDS011;10642;50.682;18.510;2023-05-17T07:41:35;18.03;;;12.90;;
20966;SDS011;10642;50.682;18.510;2023-05-17T07:44:02;21.07;;;13.20;;
20966;SDS011;10642;50.682;18.510;2023-05-17T07:46:28;19.63;;;12.77;;
20966;SDS011;10642;50.682;18.510;2023-05-17T07:48:55;18.97;;;11.67;;
20966;SDS011;10642;50.682;18.510;2023-05-17T07:51:24;23.57;;;13.37;;
20966;SDS011;10642;50.682;18.510;2023-05-17T07:53:51;20.50;;;11.43;;
20966;SDS011;10642;50.682;18.510;2023-05-17T07:56:18;16.73;;;12.13;;
20966;SDS011;10642;50.682;18.510;2023-05-17T07:58:45;18.30;;;11.43;;
20966;SDS011;10642;50.682;18.510;2023-05-17T08:01:12;19.67;;;11.60;;
20966;SDS011;10642;50.682;18.510;2023-05-17T08:03:39;18.83;;;11.87;;
20966;SDS011;10642;50.682;18.510;2023-05-17T08:06:17;16.73;;;11.53;;
20966;SDS011;10642;50.682;18.510;2023-05-17T08:08:44;18.67;;;10.90;;
20966;SDS011;10642;50.682;18.510;2023-05-17T08:11:13;16.13;;;11.97;;
20966;SDS011;10642;50.682;18.510;2023-05-17T08:14:22;15.00;;;9.33;;
20966;SDS011;10642;50.682;18.510;2023-05-17T08:16:50;15.63;;;8.73;;
20966;SDS011;10642;50.682;18.510;2023-05-17T08:19:17;15.37;;;9.33;;
20966;SDS011;10642;50.682;18.510;2023-05-17T08:21:45;15.43;;;9.03;;
20966;SDS011;10642;50.682;18.510;2023-05-17T08:24:12;14.77;;;8.67;;
20966;SDS011;10642;50.682;18.510;2023-05-17T08:26:39;13.47;;;8.60;;
20966;SDS011;10642;50.682;18.510;2023-05-17T08:29:06;13.83;;;9.13;;
20966;SDS011;10642;50.682;18.510;2023-05-17T08:31:33;14.20;;;8.87;;
20966;SDS011;10642;50.682;18.510;2023-05-17T08:34:00;15.60;;;9.30;;
20966;SDS011;10642;50.682;18.510;2023-05-17T08:36:27;17.67;;;8.70;;
20966;SDS011;10642;50.682;18.510;2023-05-17T08:38:54;14.30;;;8.43;;
20966;SDS011;10642;50.682;18.510;2023-05-17T08:41:21;22.40;;;8.60;;
20966;SDS011;10642;50.682;18.510;2023-05-17T08:43:48;15.80;;;8.87;;
20966;SDS011;10642;50.682;18.510;2023-05-17T08:46:19;14.27;;;7.93;;
20966;SDS011;10642;50.682;18.510;2023-05-17T08:48:49;16.70;;;8.23;;
20966;SDS011;10642;50.682;18.510;2023-05-17T08:51:20;14.57;;;7.83;;
20966;SDS011;10642;50.682;18.510;2023-05-17T08:53:47;15.53;;;8.30;;
20966;SDS011;10642;50.682;18.510;2023-05-17T08:56:16;12.57;;;6.33;;
20966;SDS011;10642;50.682;18.510;2023-05-17T08:58:47;15.33;;;6.47;;
20966;SDS011;10642;50.682;18.510;2023-05-17T09:01:23;16.10;;;7.23;;
20966;SDS011;10642;50.682;18.510;2023-05-17T09:03:52;14.70;;;6.13;;
20966;SDS011;10642;50.682;18.510;2023-05-17T09:06:20;16.10;;;6.47;;
20966;SDS011;10642;50.682;18.510;2023-05-17T09:08:51;10.10;;;6.20;;
20966;SDS011;10642;50.682;18.510;2023-05-17T09:11:25;12.70;;;6.57;;
20966;SDS011;10642;50.682;18.510;2023-05-17T09:13:56;11.33;;;6.97;;
20966;SDS011;10642;50.682;18.510;2023-05-17T09:16:23;8.80;;;5.97;;
20966;SDS011;10642;50.682;18.510;2023-05-17T09:18:52;12.13;;;7.03;;
20966;SDS011;10642;50.682;18.510;2023-05-17T09:21:20;9.80;;;5.73;;
20966;SDS011;10642;50.682;18.510;2023-05-17T09:23:49;11.23;;;5.93;;
20966;SDS011;10642;50.682;18.510;2023-05-17T09:26:40;10.43;;;5.67;;
20966;SDS011;10642;50.682;18.510;2023-05-17T09:29:08;8.47;;;5.30;;
20966;SDS011;10642;50.682;18.510;2023-05-17T09:31:35;11.30;;;6.10;;
20966;SDS011;10642;50.682;18.510;2023-05-17T09:34:02;12.33;;;5.73;;
20966;SDS011;10642;50.682;18.510;2023-05-17T09:36:29;11.30;;;5.23;;
20966;SDS011;10642;50.682;18.510;2023-05-17T09:38:58;13.87;;;5.27;;
20966;SDS011;10642;50.682;18.510;2023-05-17T09:41:25;15.93;;;6.33;;
20966;SDS011;10642;50.682;18.510;2023-05-17T09:43:52;12.83;;;7.03;;
20966;SDS011;10642;50.682;18.510;2023-05-17T09:46:19;13.63;;;5.13;;
20966;SDS011;10642;50.682;18.510;2023-05-17T09:48:51;12.17;;;5.63;;
20966;SDS011;10642;50.682;18.510;2023-05-17T09:51:18;10.07;;;5.27;;
20966;SDS011;10642;50.682;18.510;2023-05-17T09:53:45;8.90;;;4.73;;
20966;SDS011;10642;50.682;18.510;2023-05-17T09:56:12;11.03;;;4.40;;
20966;SDS011;10642;50.682;18.510;2023-05-17T09:58:40;6.87;;;4.07;;
20966;SDS011;10642;50.682;18.510;2023-05-17T10:01:08;15.03;;;5.00;;
20966;SDS011;10642;50.682;18.510;2023-05-17T10:03:37;7.77;;;4.00;;
20966;SDS011;10642;50.682;18.510;2023-05-17T10:06:07;10.87;;;4.37;;
20966;SDS011;10642;50.682;18.510;2023-05-17T10:08:42;9.10;;;4.23;;
20966;SDS011;10642;50.682;18.510;2023-05-17T10:11:10;12.40;;;3.97;;
20966;SDS011;10642;50.682;18.510;2023-05-17T10:13:46;8.23;;;4.47;;
20966;SDS011;10642;50.682;18.510;2023-05-17T10:16:14;10.87;;;4.27;;
20966;SDS011;10642;50.682;18.510;2023-05-17T10:18:42;10.03;;;4.53;;
20966;SDS011;10642;50.682;18.510;2023-05-17T10:21:09;8.67;;;4.53;;
20966;SDS011;10642;50.682;18.510;2023-05-17T10:23:36;9.77;;;4.63;;
20966;SDS011;10642;50.682;18.510;2023-05-17T10:26:04;12.07;;;4.53;;
20966;SDS011;10642;50.682;18.510;2023-05-17T10:28:32;8.90;;;4.37;;
20966;SDS011;10642;50.682;18.510;2023-05-17T10:30:59;10.87;;;4.53;;
20966;SDS011;10642;50.682;18.510;2023-05-17T10:33:27;11.67;;;4.27;;
20966;SDS011;10642;50.682;18.510;2023-05-17T10:35:54;10.93;;;4.30;;
20966;SDS011;10642;50.682;18.510;2023-05-17T10:38:21;14.30;;;4.47;;
20966;SDS011;10642;50.682;18.510;2023-05-17T10:41:04;10.60;;;4.73;;
20966;SDS011;10642;50.682;18.510;2023-05-17T10:43:31;10.80;;;4.03;;
20966;SDS011;10642;50.682;18.510;2023-05-17T10:45:58;8.17;;;3.90;;
20966;SDS011;10642;50.682;18.510;2023-05-17T10:48:26;8.70;;;4.27;;
20966;SDS011;10642;50.682;18.510;2023-05-17T10:50:53;15.43;;;5.80;;
20966;SDS011;10642;50.682;18.510;2023-05-17T10:53:26;9.87;;;4.87;;
20966;SDS011;10642;50.682;18.510;2023-05-17T10:55:53;12.73;;;4.27;;
20966;SDS011;10642;50.682;18.510;2023-05-17T10:58:20;14.47;;;4.17;;
20966;SDS011;10642;50.682;18.510;2023-05-17T11:00:50;8.03;;;3.90;;
20966;SDS011;10642;50.682;18.510;2023-05-17T11:08:45;6.77;;;3.67;;
20966;SDS011;10642;50.682;18.510;2023-05-17T11:11:31;12.10;;;4.80;;
20966;SDS011;10642;50.682;18.510;2023-05-17T11:13:59;7.23;;;3.93;;
20966;SDS011;10642;50.682;18.510;2023-05-17T11:16:34;6.67;;;4.00;;
20966;SDS011;10642;50.682;18.510;2023-05-17T11:19:05;10.63;;;4.20;;
20966;SDS011;10642;50.682;18.510;2023-05-17T11:21:33;5.60;;;3.47;;
20966;SDS011;10642;50.682;18.510;2023-05-17T11:24:01;8.87;;;4.43;;
20966;SDS011;10642;50.682;18.510;2023-05-17T11:26:38;10.73;;;4.17;;
20966;SDS011;10642;50.682;18.510;2023-05-17T11:29:06;11.63;;;4.63;;
20966;SDS011;10642;50.682;18.510;2023-05-17T11:31:37;9.93;;;4.23;;
20966;SDS011;10642;50.682;18.510;2023-05-17T11:34:08;9.33;;;3.70;;
20966;SDS011;10642;50.682;18.510;2023-05-17T11:36:48;15.40;;;4.27;;
20966;SDS011;10642;50.682;18.510;2023-05-17T11:39:17;9.03;;;4.43;;
20966;SDS011;10642;50.682;18.510;2023-05-17T11:41:48;7.70;;;4.50;;
20966;SDS011;10642;50.682;18.510;2023-05-17T11:44:21;9.33;;;4.30;;
20966;SDS011;10642;50.682;18.510;2023-05-17T11:46:50;9.10;;;3.97;;
20966;SDS011;10642;50.682;18.510;2023-05-17T11:49:17;6.23;;;3.83;;
20966;SDS011;10642;50.682;18.510;2023-05-17T11:52:00;13.93;;;4.50;;
20966;SDS011;10642;50.682;18.510;2023-05-17T11:54:28;11.50;;;4.57;;
20966;SDS011;10642;50.682;18.510;2023-05-17T11:56:56;7.77;;;4.00;;
20966;SDS011;10642;50.682;18.510;2023-05-17T11:59:24;17.23;;;4.90;;
20966;SDS011;10642;50.682;18.510;2023-05-17T12:01:51;13.17;;;4.70;;
20966;SDS011;10642;50.682;18.510;2023-05-17T12:04:22;10.43;;;4.97;;
20966;SDS011;10642;50.682;18.510;2023-05-17T12:06:53;10.80;;;4.77;;
20966;SDS011;10642;50.682;18.510;2023-05-17T12:09:21;12.77;;;5.53;;
20966;SDS011;10642;50.682;18.510;2023-05-17T12:11:47;12.10;;;4.40;;
20966;SDS011;10642;50.682;18.510;2023-05-17T12:14:15;11.73;;;3.93;;
20966;SDS011;10642;50.682;18.510;2023-05-17T12:16:43;13.50;;;4.50;;
20966;SDS011;10642;50.682;18.510;2023-05-17T12:19:17;13.40;;;4.73;;
20966;SDS011;10642;50.682;18.510;2023-05-17T12:21:45;7.70;;;4.23;;
20966;SDS011;10642;50.682;18.510;2023-05-17T12:24:12;9.77;;;4.50;;
20966;SDS011;10642;50.682;18.510;2023-05-17T12:26:44;10.97;;;4.40;;
20966;SDS011;10642;50.682;18.510;2023-05-17T12:29:12;10.30;;;4.67;;
20966;SDS011;10642;50.682;18.510;2023-05-17T12:34:07;10.73;;;5.60;;
20966;SDS011;10642;50.682;18.510;2023-05-17T12:36:36;11.93;;;4.90;;
20966;SDS011;10642;50.682;18.510;2023-05-17T12:39:03;13.37;;;5.70;;
20966;SDS011;10642;50.682;18.510;2023-05-17T12:41:31;12.57;;;5.47;;
20966;SDS011;10642;50.682;18.510;2023-05-17T12:43:58;14.30;;;5.07;;
20966;SDS011;10642;50.682;18.510;2023-05-17T12:46:39;12.17;;;5.33;;
20966;SDS011;10642;50.682;18.510;2023-05-17T12:49:07;11.80;;;5.03;;
20966;SDS011;10642;50.682;18.510;2023-05-17T12:51:40;11.77;;;5.37;;
20966;SDS011;10642;50.682;18.510;2023-05-17T12:54:09;9.50;;;5.23;;
20966;SDS011;10642;50.682;18.510;2023-05-17T12:56:36;13.43;;;6.20;;
20966;SDS011;10642;50.682;18.510;2023-05-17T13:01:37;11.47;;;4.77;;
20966;SDS011;10642;50.682;18.510;2023-05-17T13:04:04;12.37;;;5.10;;
20966;SDS011;10642;50.682;18.510;2023-05-17T13:06:44;11.10;;;5.33;;
20966;SDS011;10642;50.682;18.510;2023-05-17T13:09:13;12.03;;;5.80;;
20966;SDS011;10642;50.682;18.510;2023-05-17T13:11:41;10.33;;;5.20;;
20966;SDS011;10642;50.682;18.510;2023-05-17T13:14:08;15.50;;;5.87;;
20966;SDS011;10642;50.682;18.510;2023-05-17T13:16:38;12.00;;;5.40;;
20966;SDS011;10642;50.682;18.510;2023-05-17T13:19:12;17.50;;;5.47;;
20966;SDS011;10642;50.682;18.510;2023-05-17T13:21:40;17.90;;;6.67;;
20966;SDS011;10642;50.682;18.510;2023-05-17T13:24:09;16.33;;;6.80;;
20966;SDS011;10642;50.682;18.510;2023-05-17T13:26:36;18.53;;;6.60;;
20966;SDS011;10642;50.682;18.510;2023-05-17T13:29:03;14.83;;;6.17;;
20966;SDS011;10642;50.682;18.510;2023-05-17T13:31:30;11.83;;;5.63;;
20966;SDS011;10642;50.682;18.510;2023-05-17T13:33:57;12.43;;;4.70;;
20966;SDS011;10642;50.682;18.510;2023-05-17T13:36:24;11.83;;;5.67;;
20966;SDS011;10642;50.682;18.510;2023-05-17T13:38:51;17.43;;;5.43;;
20966;SDS011;10642;50.682;18.510;2023-05-17T13:41:18;9.77;;;4.53;;
20966;SDS011;10642;50.682;18.510;2023-05-17T13:43:45;11.20;;;5.00;;
20966;SDS011;10642;50.682;18.510;2023-05-17T13:46:12;13.23;;;6.10;;
20966;SDS011;10642;50.682;18.510;2023-05-17T13:48:39;15.83;;;6.30;;
20966;SDS011;10642;50.682;18.510;2023-05-17T13:51:08;11.93;;;5.57;;
20966;SDS011;10642;50.682;18.510;2023-05-17T13:53:35;18.27;;;7.17;;
20966;SDS011;10642;50.682;18.510;2023-05-17T13:56:04;14.33;;;5.57;;
20966;SDS011;10642;50.682;18.510;2023-05-17T13:58:31;14.87;;;5.70;;
20966;SDS011;10642;50.682;18.510;2023-05-17T14:00:58;13.40;;;5.57;;
20966;SDS011;10642;50.682;18.510;2023-05-17T14:03:25;15.00;;;5.93;;
20966;SDS011;10642;50.682;18.510;2023-05-17T14:05:52;14.43;;;6.73;;
20966;SDS011;10642;50.682;18.510;2023-05-17T14:08:19;15.30;;;6.70;;
20966;SDS011;10642;50.682;18.510;2023-05-17T14:10:47;15.87;;;6.30;;
20966;SDS011;10642;50.682;18.510;2023-05-17T14:13:13;18.23;;;8.13;;
20966;SDS011;10642;50.682;18.510;2023-05-17T14:15:40;14.87;;;6.20;;
20966;SDS011;10642;50.682;18.510;2023-05-17T14:18:08;15.27;;;5.40;;
20966;SDS011;10642;50.682;18.510;2023-05-17T14:20:35;13.10;;;5.93;;
20966;SDS011;10642;50.682;18.510;2023-05-17T14:23:02;18.37;;;8.70;;
20966;SDS011;10642;50.682;18.510;2023-05-17T14:25:29;20.27;;;7.30;;
20966;SDS011;10642;50.682;18.510;2023-05-17T14:27:56;13.80;;;6.07;;
20966;SDS011;10642;50.682;18.510;2023-05-17T14:30:23;14.93;;;8.03;;
20966;SDS011;10642;50.682;18.510;2023-05-17T14:32:50;19.33;;;11.80;;
20966;SDS011;10642;50.682;18.510;2023-05-17T14:35:17;20.73;;;9.43;;
20966;SDS011;10642;50.682;18.510;2023-05-17T14:37:44;20.63;;;9.87;;
20966;SDS011;10642;50.682;18.510;2023-05-17T14:40:11;51.80;;;25.73;;
20966;SDS011;10642;50.682;18.510;2023-05-17T14:42:38;54.37;;;22.07;;
20966;SDS011;10642;50.682;18.510;2023-05-17T14:45:05;28.77;;;14.43;;
20966;SDS011;10642;50.682;18.510;2023-05-17T14:47:32;28.03;;;13.90;;